OPA Logo
 
ASOS:
At:2021.10.27 2115 UTC
Wind:250° @ 11KT
Viz: 10 mile(s)
Sky: mostly clear
Temp: 57 F (14 C)
DewP: 30 F (-1 C)
RH: 35%
Baro: 30.27 in.
ob: KBDN 272115Z AUTO 25011KT 10SM FEW075 14/M01 A3027 RMK AO2

ASOS: KRDM
At:2021.10.27 2056 UTC
Wind:010° @ 10KT
Viz: 10 mile(s)
Sky: mostly cloudy
Temp: 55.9 F (13.3 C)
DewP: 34.0 F (1.1 C)
RH: 43%
Baro: 30.25 in.
ob: KRDM 272056Z 01010KT 10SM BKN080 13/01 A3025 RMK AO2 SLP242 T01330011 58002
Apache-SSL Logo

Valid HTML 4.01!

Central Oregon OPA Chapter

Sectional Charts


If you want to download the latest sectionals you can get them for free directly from FAAjust click on 'Free Digital Products'.

CF -16, Idaoha, Oregon, Washington WAC chart - 14 Jan 2010 North , South

Klamath Sectional 83 - 23 Sep 2010 North , South

San Francisco Sectional 76 - 16 Mar 2006 60MB ZIP

San Francisco Terminal Area Charts 68 - 16 Mar 2006 27MB ZIP

Seattle Sectional 79 - 3 Jun 2010 North , South , Terminal Area Chart 74 , VFR Flyways 74 ,

Seattle Terminal Area Charts 65 - 22 Dec 2005 23MB ZIP

Approach Plates


If you want to download the latest approach plates you can get them directly from NACO.

Take Off Minimums - 11 May 2006 PDF

Alternate Minimums - 11 May 2006 PDF

Bend RNAV RWY 16 - 11 May 2006 PDF

Bend VOR/DME RWY 16 - 11 May 2006 PDF

Redmond ILS 22 - 11 May 2006 PDF

Redmond RNAV 28 - 11 May 2006 PDF

Redmond VOR/DME 22 - 11 May 2006 PDF

Redmond VOR A - 11 May 2006 PDF

Redmond NDB/GPS 22 - 11 May 2006 PDF

Redmond GPS 10 - 11 May 2006 PDF

Redmond Airport Diagram - 11 May 2006 PDF


Web page by: gem@rellim.com